KBVO/BVO METAR and TAF weather

Enter ICAO airport designator
Station Type Date Time Source
KBVO METAR 2022/11/30 10:53 UTC NOAA

KBVO 301053Z AUTO 00000KT 10SM CLR M06/M08 A3037 RMK AO2 SLP287 T10561083


Station Type Date Time Source
KBVO Decoded METAR 2022/11/30 10:53 UTC NOAA

BARTLESVILLE MUNICIPAL AIRPORT , OK, United States (KBVO) 36-46N 96-01W 210M
Nov 30, 2022 - 05:53 AM EST / 2022.11.30 1053 UTC
Wind: Calm:0
Visibility: 10 mile(s):0
Sky conditions: clear
Temperature: 21.9 F (-5.6 C)
Dew Point: 17.1 F (-8.3 C)
Relative Humidity: 81%
Pressure (altimeter): 30.37 in. Hg (1028 hPa)
ob: KBVO 301053Z AUTO 00000KT 10SM CLR M06/M08 A3037 RMK AO2 SLP287 T10561083
cycle: 11

Station Type Date Time Source
KBVO TAF 2022/11/30 12:22 UTC NOAA

TAF KBVO 301120Z 3012/0112 VRB03KT P6SM SKC

Example: see airport list